Weissert, Nebraska
Current Conditions -  °F | °C
As of 9:53 PM on Saturday 24 Jan 2015 (Local Time) from KBBW Reporting Station
Scattered Clouds Scattered Clouds  
Wind Chill: 35°   Ceiling: Unl
Heat Index: 45°   Visibility: 10mi
Dew Point: 33°   Wind: 31mph
Humidity: 63%   Direction: 320°NW
Pressure: 29.78"   Gusts: 40mph
Location:  41.47°N, 99.44°W
Report Text: KBBW 250353Z AUTO 32027G35KT 10SM SCT060 07/01 A2978 RMK AO2 PK WND 31038/0321 SLP095 T00720006
Loading
Personal Weather Stations






























Interactive Weather Map New forecast layout! Learn more

10-Day Weather Forecast

Advertisements
Track Severe Weather on mobile